Time;durP1;ratioP1;P1;durP2;ratioP2;P2;SDS_P1;SDS_P2;PMS_P1;PMS_P2;Temp;Humidity;BMP_temperature;BMP_pressure;BME280_temperature;BME280_humidity;BME280_pressure;Samples;Min_cycle;Max_cycle;Signal;HPM_P1;HPM_P2
2022/03/18 00:00:52;;;;;;;6.00;4.07;;;7.80;99.90;;;;;;648201;221;26831;-69
2022/03/18 00:03:19;;;;;;;5.90;3.87;;;7.90;99.90;;;;;;645188;223;26530;-68
2022/03/18 00:05:46;;;;;;;4.00;3.60;;;8.00;99.90;;;;;;645178;223;26842;-69
2022/03/18 00:08:14;;;;;;;4.60;4.20;;;7.80;99.90;;;;;;645187;223;26520;-70
2022/03/18 00:10:44;;;;;;;4.20;3.90;;;8.00;99.90;;;;;;644961;222;26519;-69
2022/03/18 00:13:10;;;;;;;4.07;3.72;;;7.90;99.90;;;;;;645033;223;26512;-70
2022/03/18 00:15:37;;;;;;;4.70;3.87;;;7.90;99.90;;;;;;639745;221;26520;-70
2022/03/18 00:18:05;;;;;;;4.07;3.67;;;7.90;99.90;;;;;;638583;221;27130;-68
2022/03/18 00:20:32;;;;;;;4.10;3.80;;;7.90;99.90;;;;;;639627;223;26694;-70
2022/03/18 00:23:00;;;;;;;4.00;3.70;;;7.90;99.90;;;;;;651067;221;26519;-69
2022/03/18 00:25:29;;;;;;;4.68;3.62;;;7.80;99.90;;;;;;619461;229;26642;-69
2022/03/18 00:27:55;;;;;;;4.40;4.10;;;7.80;99.90;;;;;;643223;223;26576;-69
2022/03/18 00:30:22;;;;;;;3.72;3.42;;;7.80;99.90;;;;;;645240;223;26523;-69
2022/03/18 00:32:51;;;;;;;3.80;3.50;;;7.80;99.90;;;;;;645145;222;26831;-70
2022/03/18 00:35:17;;;;;;;4.43;3.75;;;7.70;99.90;;;;;;640881;221;26529;-69
2022/03/18 00:37:44;;;;;;;4.40;4.00;;;7.70;99.90;;;;;;638585;225;26489;-69
2022/03/18 00:40:12;;;;;;;4.47;3.70;;;7.80;99.90;;;;;;638517;225;26583;-69
2022/03/18 00:42:40;;;;;;;3.70;3.40;;;7.70;99.90;;;;;;638664;221;26585;-69
2022/03/18 00:45:08;;;;;;;3.78;3.47;;;7.70;99.90;;;;;;639510;223;26575;-69
2022/03/18 00:52:43;;;;;;;4.62;3.85;;;7.80;99.90;;;;;;648875;221;26524;-69
2022/03/18 00:55:10;;;;;;;4.25;3.85;;;7.70;99.90;;;;;;637867;225;26723;-69
2022/03/18 00:57:37;;;;;;;3.95;3.40;;;7.70;99.90;;;;;;649822;221;26576;-69
2022/03/18 01:00:06;;;;;;;4.00;3.58;;;7.80;99.90;;;;;;637781;225;26698;-69
2022/03/18 01:02:34;;;;;;;3.60;3.30;;;7.70;99.90;;;;;;638447;221;26533;-69
2022/03/18 01:05:02;;;;;;;3.70;3.40;;;7.70;99.90;;;;;;638016;225;26532;-69
2022/03/18 01:07:30;;;;;;;3.85;3.40;;;7.70;99.90;;;;;;638875;221;26955;-69
2022/03/18 01:09:56;;;;;;;3.67;3.37;;;7.80;99.90;;;;;;640056;225;26516;-69
2022/03/18 01:12:23;;;;;;;4.00;3.60;;;7.80;99.90;;;;;;638376;221;27042;-70
2022/03/18 01:14:51;;;;;;;3.60;3.40;;;7.90;99.90;;;;;;639993;224;26528;-70
2022/03/18 01:17:19;;;;;;;3.25;2.95;;;7.80;99.90;;;;;;640082;225;26516;-69
2022/03/18 01:19:47;;;;;;;3.90;3.10;;;7.80;99.90;;;;;;638078;225;26488;-70
2022/03/18 01:22:14;;;;;;;3.75;3.45;;;7.80;99.90;;;;;;638655;221;26505;-70
2022/03/18 01:24:41;;;;;;;3.72;3.40;;;7.90;99.90;;;;;;638075;225;26772;-70
2022/03/18 01:27:08;;;;;;;3.60;3.30;;;7.90;99.90;;;;;;638223;225;26504;-71
2022/03/18 01:29:35;;;;;;;3.60;3.30;;;7.80;99.90;;;;;;642941;221;26763;-70
2022/03/18 01:32:03;;;;;;;3.72;3.33;;;7.80;99.90;;;;;;627581;227;26616;-71
2022/03/18 01:34:31;;;;;;;4.12;3.67;;;7.70;99.90;;;;;;651033;221;26538;-70
2022/03/18 01:36:59;;;;;;;3.40;3.10;;;7.80;99.90;;;;;;638681;225;26472;-71
2022/03/18 01:39:27;;;;;;;3.10;2.90;;;7.90;99.90;;;;;;650284;221;26559;-69
2022/03/18 01:41:54;;;;;;;3.62;3.33;;;7.90;99.90;;;;;;638359;225;26735;-69
2022/03/18 01:44:22;;;;;;;3.55;3.35;;;7.70;99.90;;;;;;650388;221;26571;-70
2022/03/18 01:46:49;;;;;;;4.43;2.87;;;7.60;99.90;;;;;;626513;229;26780;-70
2022/03/18 01:49:17;;;;;;;3.28;3.05;;;7.60;99.90;;;;;;639069;221;26738;-71
2022/03/18 01:51:45;;;;;;;3.70;3.40;;;7.70;99.90;;;;;;646511;221;26533;-70
2022/03/18 01:56:45;;;;;;;3.53;3.22;;;7.60;99.90;;;;;;649776;221;26507;-71
2022/03/18 01:59:13;;;;;;;3.30;3.10;;;7.60;99.90;;;;;;626173;228;26600;-71
2022/03/18 02:01:40;;;;;;;3.20;3.00;;;7.70;99.90;;;;;;650146;221;26515;-71
2022/03/18 02:04:08;;;;;;;3.60;3.03;;;7.70;99.90;;;;;;638010;225;26483;-69
2022/03/18 02:06:35;;;;;;;2.83;2.62;;;7.70;99.90;;;;;;644085;221;26576;-70
2022/03/18 02:09:02;;;;;;;3.42;3.05;;;7.70;99.90;;;;;;638150;225;26884;-70
2022/03/18 02:11:29;;;;;;;3.15;2.95;;;7.70;99.90;;;;;;646563;221;26526;-71
2022/03/18 02:13:57;;;;;;;3.00;2.70;;;7.80;99.90;;;;;;637680;225;26516;-69
2022/03/18 02:16:24;;;;;;;3.00;2.80;;;7.70;99.70;;;;;;645849;221;26718;-71
2022/03/18 02:18:52;;;;;;;3.30;3.10;;;7.70;99.80;;;;;;645222;223;26489;-71
2022/03/18 02:21:20;;;;;;;3.45;3.12;;;7.80;99.50;;;;;;645160;222;26492;-70
2022/03/18 02:23:47;;;;;;;3.05;2.78;;;7.80;99.50;;;;;;644514;221;26501;-70
2022/03/18 02:26:15;;;;;;;3.05;2.85;;;7.80;99.40;;;;;;645220;222;26487;-69
2022/03/18 02:28:42;;;;;;;3.22;2.92;;;7.70;99.40;;;;;;649601;221;26776;-67
2022/03/18 02:31:09;;;;;;;3.15;2.95;;;7.70;99.50;;;;;;637755;225;26535;-68
2022/03/18 02:33:36;;;;;;;3.03;2.78;;;7.80;99.20;;;;;;645002;221;26543;-68
2022/03/18 02:36:04;;;;;;;3.83;2.75;;;7.70;99.20;;;;;;638130;225;26543;-67
2022/03/18 02:38:32;;;;;;;4.47;2.83;;;7.70;99.20;;;;;;638175;225;26512;-68
2022/03/18 02:40:59;;;;;;;3.05;2.75;;;7.70;99.10;;;;;;639100;221;26867;-67
2022/03/18 02:43:26;;;;;;;3.05;2.83;;;7.70;98.90;;;;;;639729;223;26553;-66
2022/03/18 02:45:53;;;;;;;2.87;2.67;;;7.70;99.00;;;;;;639399;221;26531;-69
2022/03/18 02:48:21;;;;;;;3.55;3.20;;;7.70;98.60;;;;;;639111;225;26556;-68
2022/03/18 02:50:48;;;;;;;2.95;2.75;;;7.70;98.60;;;;;;641505;222;26557;-67
2022/03/18 02:53:16;;;;;;;3.22;2.60;;;7.70;98.60;;;;;;646003;223;26516;-67
2022/03/18 02:55:43;;;;;;;3.30;3.00;;;7.60;98.50;;;;;;645867;222;26806;-68
2022/03/18 02:58:10;;;;;;;2.72;2.47;;;7.70;98.20;;;;;;645877;223;26501;-67
2022/03/18 03:00:37;;;;;;;3.37;3.08;;;7.60;98.20;;;;;;643665;221;26516;-68
2022/03/18 03:03:05;;;;;;;5.40;2.87;;;7.80;98.00;;;;;;644846;223;26580;-68
2022/03/18 03:08:05;;;;;;;2.80;2.60;;;7.70;97.90;;;;;;638430;225;26569;-66
2022/03/18 03:10:32;;;;;;;3.00;2.80;;;7.70;97.80;;;;;;639764;224;26876;-66
2022/03/18 03:13:01;;;;;;;2.97;2.70;;;7.70;97.90;;;;;;636124;225;26527;-66
2022/03/18 03:15:28;;;;;;;4.28;2.90;;;7.70;97.70;;;;;;633137;225;26536;-68
2022/03/18 03:17:55;;;;;;;2.80;2.60;;;7.70;97.50;;;;;;633008;225;26776;-69
2022/03/18 03:20:23;;;;;;;2.85;2.60;;;7.80;97.40;;;;;;632608;227;26564;-68
2022/03/18 03:22:50;;;;;;;2.95;2.75;;;7.80;97.10;;;;;;632824;225;26562;-68
2022/03/18 03:25:17;;;;;;;3.12;2.83;;;7.80;96.90;;;;;;639474;221;26770;-67
2022/03/18 03:27:45;;;;;;;2.55;2.45;;;7.70;96.90;;;;;;638136;225;26519;-67
2022/03/18 03:30:12;;;;;;;4.35;2.92;;;7.70;96.90;;;;;;638225;225;26504;-67
2022/03/18 03:32:40;;;;;;;2.62;2.53;;;7.70;96.90;;;;;;638146;223;26500;-70
2022/03/18 03:35:08;;;;;;;2.75;2.50;;;7.80;96.80;;;;;;641819;220;26783;-65
2022/03/18 03:37:36;;;;;;;2.75;2.33;;;7.80;96.80;;;;;;643903;221;26743;-67
2022/03/18 03:40:04;;;;;;;4.43;2.97;;;7.90;96.60;;;;;;637695;225;26516;-68
2022/03/18 03:42:32;;;;;;;6.95;2.75;;;7.80;96.50;;;;;;639300;221;26504;-66
2022/03/18 03:44:59;;;;;;;3.97;2.67;;;7.80;96.60;;;;;;641757;221;26813;-67
2022/03/18 03:47:26;;;;;;;3.60;2.80;;;7.70;96.90;;;;;;644701;221;26524;-67
2022/03/18 03:49:53;;;;;;;3.55;2.53;;;7.70;96.80;;;;;;638094;225;26494;-67
2022/03/18 03:52:20;;;;;;;2.80;2.58;;;7.60;96.70;;;;;;638205;225;26733;-67
2022/03/18 03:54:48;;;;;;;2.45;2.30;;;7.70;96.70;;;;;;651143;219;26575;-67
2022/03/18 03:57:15;;;;;;;2.95;2.28;;;7.70;96.60;;;;;;651203;221;26750;-67
2022/03/18 03:59:43;;;;;;;2.78;2.53;;;7.60;96.60;;;;;;650817;221;26506;-66
2022/03/18 04:02:12;;;;;;;2.90;2.60;;;7.50;96.80;;;;;;650704;221;26521;-66
2022/03/18 04:04:38;;;;;;;3.28;2.37;;;7.50;96.80;;;;;;650167;221;26591;-67
2022/03/18 04:07:05;;;;;;;4.43;2.67;;;7.50;96.80;;;;;;640721;224;26499;-63
2022/03/18 04:09:33;;;;;;;3.17;2.70;;;7.50;96.60;;;;;;640646;224;26752;-63
2022/03/18 04:12:00;;;;;;;2.78;2.55;;;7.50;96.60;;;;;;638539;225;26521;-63
2022/03/18 04:14:28;;;;;;;2.60;2.40;;;7.60;96.80;;;;;;640593;221;26818;-63
2022/03/18 04:16:55;;;;;;;2.80;2.42;;;7.70;96.50;;;;;;640013;221;26564;-63
2022/03/18 04:19:22;;;;;;;5.07;2.97;;;7.60;96.40;;;;;;638979;221;27176;-62
2022/03/18 04:21:49;;;;;;;2.62;2.42;;;7.50;96.70;;;;;;639255;221;26546;-63
2022/03/18 04:24:16;;;;;;;2.87;2.20;;;7.60;96.60;;;;;;644378;223;26585;-63
2022/03/18 04:26:44;;;;;;;3.53;2.60;;;7.40;96.70;;;;;;644237;222;26644;-63
2022/03/18 04:29:13;;;;;;;6.80;2.40;;;7.40;96.60;;;;;;639814;221;26567;-62
2022/03/18 04:31:39;;;;;;;2.78;2.40;;;7.40;96.60;;;;;;642074;221;26834;-62
2022/03/18 04:34:07;;;;;;;2.80;2.53;;;7.40;96.50;;;;;;642921;221;26538;-62
2022/03/18 04:36:34;;;;;;;3.00;2.50;;;7.30;96.50;;;;;;635776;225;27003;-63
2022/03/18 04:39:02;;;;;;;4.53;2.58;;;7.40;96.30;;;;;;623372;230;26532;-62
2022/03/18 04:41:30;;;;;;;2.50;2.30;;;7.30;96.30;;;;;;649784;221;26587;-62
2022/03/18 04:43:57;;;;;;;3.12;2.30;;;7.30;96.30;;;;;;637315;225;26545;-63
2022/03/18 04:46:24;;;;;;;2.72;2.53;;;7.30;96.50;;;;;;649903;221;26587;-63
2022/03/18 04:48:51;;;;;;;2.97;2.10;;;7.20;96.40;;;;;;637720;225;26900;-63
2022/03/18 04:51:19;;;;;;;3.00;2.35;;;7.10;96.50;;;;;;649829;221;26559;-63
2022/03/18 04:53:46;;;;;;;2.58;2.37;;;7.00;96.30;;;;;;637599;225;26523;-63
2022/03/18 04:58:47;;;;;;;4.32;2.40;;;6.80;96.50;;;;;;637763;225;26464;-63
2022/03/18 05:01:14;;;;;;;3.08;2.30;;;6.80;96.80;;;;;;649798;221;27206;-63
2022/03/18 05:03:42;;;;;;;3.03;2.28;;;6.70;96.80;;;;;;637771;225;26520;-63
2022/03/18 05:06:10;;;;;;;2.28;2.08;;;6.60;97.10;;;;;;651368;219;26575;-63
2022/03/18 05:08:39;;;;;;;2.95;2.33;;;6.50;97.40;;;;;;639085;225;26562;-62
2022/03/18 05:11:07;;;;;;;3.33;2.17;;;6.50;97.30;;;;;;650885;221;26573;-63
2022/03/18 05:13:34;;;;;;;2.28;2.08;;;6.50;97.30;;;;;;638692;225;26799;-63
2022/03/18 05:16:01;;;;;;;2.92;2.28;;;6.50;97.20;;;;;;650401;221;26592;-62
2022/03/18 05:18:28;;;;;;;2.85;2.30;;;6.50;97.30;;;;;;638387;225;26750;-63
2022/03/18 05:20:56;;;;;;;2.10;2.00;;;6.40;97.20;;;;;;650487;221;26563;-62
2022/03/18 05:23:23;;;;;;;2.85;2.53;;;6.40;97.30;;;;;;638219;225;26495;-62
2022/03/18 05:25:51;;;;;;;2.20;2.10;;;6.50;96.80;;;;;;650091;221;26552;-63
2022/03/18 05:28:19;;;;;;;2.70;2.50;;;6.50;96.50;;;;;;626179;230;26605;-63
2022/03/18 05:30:46;;;;;;;2.70;1.95;;;6.50;96.50;;;;;;650168;221;26753;-62
2022/03/18 05:33:13;;;;;;;2.40;2.20;;;6.50;96.60;;;;;;638023;225;26475;-62
2022/03/18 05:35:41;;;;;;;2.25;1.80;;;6.60;96.40;;;;;;650052;221;27455;-63
2022/03/18 05:38:08;;;;;;;2.17;1.98;;;6.50;96.40;;;;;;638302;225;26440;-61
2022/03/18 05:40:36;;;;;;;3.03;2.22;;;6.50;96.40;;;;;;650516;221;26485;-62
2022/03/18 05:43:03;;;;;;;2.65;1.80;;;6.60;96.30;;;;;;638144;225;26486;-62
2022/03/18 05:45:30;;;;;;;2.33;2.12;;;6.50;96.20;;;;;;650187;221;26796;-61
2022/03/18 05:47:57;;;;;;;3.55;2.40;;;6.30;96.40;;;;;;638116;225;26497;-62
2022/03/18 05:50:24;;;;;;;3.22;2.30;;;6.40;96.10;;;;;;650202;221;26800;-62
2022/03/18 05:52:52;;;;;;;2.47;2.28;;;6.30;96.10;;;;;;626246;230;26575;-61
2022/03/18 05:55:20;;;;;;;2.20;2.10;;;6.20;96.10;;;;;;650033;221;26598;-62
2022/03/18 05:57:47;;;;;;;4.43;2.30;;;6.20;96.10;;;;;;625796;230;26634;-62
2022/03/18 06:00:15;;;;;;;2.30;2.10;;;6.20;96.10;;;;;;649858;221;26531;-62
2022/03/18 06:02:42;;;;;;;2.35;2.15;;;6.20;96.00;;;;;;625869;230;26614;-62
2022/03/18 06:05:09;;;;;;;3.62;2.47;;;6.10;96.00;;;;;;649764;221;26937;-63
2022/03/18 06:07:36;;;;;;;2.80;2.10;;;6.00;96.20;;;;;;625904;230;27322;-62
2022/03/18 06:12:38;;;;;;;3.28;2.05;;;6.00;96.20;;;;;;637739;225;26528;-62
2022/03/18 06:15:06;;;;;;;2.35;2.15;;;5.80;96.10;;;;;;649734;221;26588;-62
2022/03/18 06:17:33;;;;;;;2.08;1.98;;;5.80;96.20;;;;;;638971;223;26721;-62
2022/03/18 06:20:00;;;;;;;2.45;2.25;;;5.90;96.40;;;;;;651230;220;26601;-62
2022/03/18 06:22:27;;;;;;;2.92;2.45;;;5.90;96.10;;;;;;638741;225;26464;-63
2022/03/18 06:24:55;;;;;;;3.10;2.10;;;5.80;96.20;;;;;;650834;221;26588;-62
2022/03/18 06:27:23;;;;;;;3.92;2.15;;;5.80;96.30;;;;;;625989;230;26496;-62
2022/03/18 06:29:51;;;;;;;4.03;2.20;;;5.80;96.20;;;;;;650482;221;26563;-62
2022/03/18 06:32:17;;;;;;;2.42;2.20;;;5.90;96.10;;;;;;638237;225;26730;-61
2022/03/18 06:34:45;;;;;;;2.00;1.90;;;5.70;96.30;;;;;;650270;221;26588;-62
2022/03/18 06:37:12;;;;;;;2.50;2.25;;;5.70;96.30;;;;;;638051;225;26792;-62
2022/03/18 06:39:39;;;;;;;2.42;1.80;;;5.70;96.40;;;;;;650154;221;26472;-63
2022/03/18 06:42:06;;;;;;;2.62;2.08;;;5.80;96.10;;;;;;638041;225;26698;-62
2022/03/18 06:44:34;;;;;;;2.85;2.05;;;5.70;96.00;;;;;;650094;221;26534;-62
2022/03/18 06:47:01;;;;;;;2.30;2.10;;;5.80;95.90;;;;;;626169;230;26992;-62
2022/03/18 06:49:28;;;;;;;2.15;1.95;;;5.70;96.00;;;;;;650081;221;26516;-63
2022/03/18 06:51:55;;;;;;;2.08;1.77;;;5.80;96.00;;;;;;637991;225;26704;-62
2022/03/18 06:54:23;;;;;;;1.83;1.73;;;5.70;96.10;;;;;;649786;221;26579;-61
2022/03/18 06:56:51;;;;;;;2.40;2.20;;;5.70;96.10;;;;;;637716;225;26531;-62
2022/03/18 06:59:18;;;;;;;2.35;2.10;;;5.70;96.10;;;;;;649763;221;26531;-62
2022/03/18 07:01:46;;;;;;;2.03;1.92;;;5.80;95.80;;;;;;637741;225;26517;-61
2022/03/18 07:04:13;;;;;;;2.87;2.10;;;5.70;95.90;;;;;;649698;221;26784;-62
2022/03/18 07:06:40;;;;;;;6.45;2.55;;;5.90;95.80;;;;;;625796;230;26624;-63
2022/03/18 07:09:07;;;;;;;5.97;2.95;;;6.00;95.50;;;;;;649619;221;26798;-63
2022/03/18 07:11:35;;;;;;;7.00;2.50;;;6.10;95.40;;;;;;637631;225;26501;-63
2022/03/18 07:14:03;;;;;;;5.65;2.12;;;6.10;95.20;;;;;;649623;221;26515;-63
2022/03/18 07:19:03;;;;;;;3.83;2.42;;;6.30;95.00;;;;;;649741;221;26526;-62
2022/03/18 07:21:30;;;;;;;6.37;2.50;;;6.40;94.60;;;;;;625761;230;27372;-64
2022/03/18 07:23:58;;;;;;;3.95;2.20;;;6.50;94.50;;;;;;649517;221;26574;-62
2022/03/18 07:26:26;;;;;;;2.87;2.17;;;6.40;94.40;;;;;;637603;225;26573;-63
2022/03/18 07:28:53;;;;;;;2.58;2.37;;;6.40;94.40;;;;;;650819;219;26549;-63
2022/03/18 07:31:20;;;;;;;4.82;1.98;;;6.30;94.40;;;;;;639022;225;26435;-63
2022/03/18 07:33:48;;;;;;;3.28;2.45;;;6.30;94.40;;;;;;650753;221;26787;-62
2022/03/18 07:36:15;;;;;;;5.25;2.50;;;6.40;94.30;;;;;;638636;225;26472;-62
2022/03/18 07:38:44;;;;;;;6.07;2.70;;;6.30;94.20;;;;;;650579;221;26546;-62
2022/03/18 07:41:11;;;;;;;9.48;2.40;;;6.50;94.10;;;;;;634293;225;26518;-62
2022/03/18 07:43:38;;;;;;;4.78;2.40;;;6.60;94.20;;;;;;619943;229;26618;-63
2022/03/18 07:46:06;;;;;;;6.03;2.42;;;6.50;94.10;;;;;;638816;225;27248;-63
2022/03/18 07:48:34;;;;;;;4.53;2.45;;;6.60;93.80;;;;;;638307;223;26590;-62
2022/03/18 07:51:01;;;;;;;4.20;2.47;;;6.70;93.90;;;;;;644906;221;26485;-62
2022/03/18 07:53:29;;;;;;;4.80;2.10;;;6.80;93.70;;;;;;630088;225;26651;-61
2022/03/18 07:55:56;;;;;;;4.37;2.10;;;6.70;93.70;;;;;;632483;227;26501;-62
2022/03/18 07:58:23;;;;;;;4.68;2.30;;;6.70;93.70;;;;;;622685;229;26544;-63
2022/03/18 08:00:50;;;;;;;5.57;2.20;;;6.60;93.60;;;;;;644437;221;26877;-62
2022/03/18 08:03:17;;;;;;;6.60;2.50;;;6.60;93.70;;;;;;638434;225;26511;-63
2022/03/18 08:05:45;;;;;;;5.87;2.50;;;6.80;93.60;;;;;;637981;225;26521;-62
2022/03/18 08:08:13;;;;;;;7.03;2.45;;;6.80;93.40;;;;;;638098;225;26501;-62
2022/03/18 08:10:41;;;;;;;5.00;2.55;;;7.00;93.50;;;;;;631586;225;26461;-62
2022/03/18 08:13:09;;;;;;;5.57;2.58;;;6.90;93.00;;;;;;647015;221;26753;-62
2022/03/18 08:15:36;;;;;;;4.75;2.15;;;6.90;93.00;;;;;;645042;222;27363;-62
2022/03/18 08:18:03;;;;;;;4.60;2.35;;;7.00;93.10;;;;;;638047;222;26509;-62
2022/03/18 08:20:30;;;;;;;4.22;1.92;;;7.10;92.80;;;;;;638057;225;26504;-62
2022/03/18 08:22:57;;;;;;;11.15;3.15;;;7.20;92.70;;;;;;644411;221;26767;-66
2022/03/18 08:25:26;;;;;;;11.73;2.75;;;7.20;92.60;;;;;;618446;230;26576;-62
2022/03/18 08:27:52;;;;;;;9.00;2.70;;;7.30;92.40;;;;;;615460;232;26567;-62
2022/03/18 08:30:20;;;;;;;8.63;3.10;;;7.20;92.50;;;;;;623576;228;26595;-61
2022/03/18 08:32:47;;;;;;;58.83;13.85;;;7.30;92.40;;;;;;631321;228;26548;-61
2022/03/18 08:35:14;;;;;;;106.03;21.50;;;7.40;92.20;;;;;;636535;225;26745;-62
2022/03/18 08:40:14;;;;;;;1999.90;436.17;;;7.30;92.30;;;;;;638665;223;26515;-62
2022/03/18 08:42:42;;;;;;;143.60;30.33;;;7.50;92.70;;;;;;651277;221;26562;-64
2022/03/18 08:45:11;;;;;;;135.05;27.25;;;7.50;92.60;;;;;;635626;225;26488;-62
2022/03/18 08:47:38;;;;;;;94.97;21.85;;;7.50;92.30;;;;;;621871;231;26765;-64
2022/03/18 08:50:06;;;;;;;84.13;19.85;;;7.70;91.90;;;;;;626231;229;26478;-63
2022/03/18 08:52:33;;;;;;;75.72;18.30;;;7.70;92.60;;;;;;623413;229;26525;-63
2022/03/18 08:55:00;;;;;;;72.87;17.65;;;7.70;91.80;;;;;;643975;221;26794;-62
2022/03/18 08:57:28;;;;;;;63.08;16.12;;;7.90;92.00;;;;;;644012;223;26526;-62
2022/03/18 08:59:56;;;;;;;70.87;15.10;;;7.90;91.60;;;;;;649324;221;26796;-62
2022/03/18 09:02:22;;;;;;;47.62;14.45;;;7.90;91.40;;;;;;643263;223;26560;-63
2022/03/18 09:04:51;;;;;;;46.53;13.52;;;8.00;91.40;;;;;;644029;221;26756;-63
2022/03/18 09:07:17;;;;;;;40.00;11.05;;;8.10;91.20;;;;;;626170;228;26617;-62
2022/03/18 09:09:44;;;;;;;20.08;6.22;;;8.10;91.20;;;;;;640154;221;26725;-62
2022/03/18 09:12:12;;;;;;;12.73;4.35;;;8.10;91.40;;;;;;638475;224;26759;-62
2022/03/18 09:14:40;;;;;;;11.75;3.90;;;8.20;91.00;;;;;;643132;221;26597;-62
2022/03/18 09:17:08;;;;;;;13.50;3.65;;;8.20;91.20;;;;;;621143;230;26624;-62
2022/03/18 09:19:37;;;;;;;14.05;3.62;;;8.30;91.10;;;;;;648315;221;26508;-62
2022/03/18 09:22:03;;;;;;;13.62;4.10;;;8.30;91.10;;;;;;645146;221;26481;-62
2022/03/18 09:24:30;;;;;;;9.52;3.67;;;8.50;91.60;;;;;;634762;225;26589;-62
2022/03/18 09:26:58;;;;;;;10.38;3.60;;;8.40;91.70;;;;;;643522;221;27220;-62
2022/03/18 09:29:25;;;;;;;11.05;3.90;;;8.50;90.80;;;;;;646615;221;26501;-63
2022/03/18 09:31:52;;;;;;;8.48;3.50;;;8.70;90.60;;;;;;628867;225;27131;-62
2022/03/18 09:34:24;;;;;;;11.25;3.55;;;9.10;90.20;;;;;;648627;221;26516;-61
2022/03/18 09:36:48;;;;;;;9.20;3.03;;;9.00;89.80;;;;;;634972;225;26517;-61
2022/03/18 09:39:16;;;;;;;9.55;3.58;;;8.80;90.90;;;;;;629598;227;26522;-61
2022/03/18 09:41:43;;;;;;;10.48;3.72;;;8.80;90.60;;;;;;628173;225;26778;-62
2022/03/18 09:44:10;;;;;;;10.55;3.75;;;8.80;90.20;;;;;;647262;221;26527;-61
2022/03/18 09:46:38;;;;;;;6.70;3.15;;;8.90;90.30;;;;;;638069;223;26751;-61
2022/03/18 09:49:11;;;;;;;9.85;3.30;;;8.90;90.30;;;;;;638003;225;26740;-61
2022/03/18 09:51:33;;;;;;;10.77;3.70;;;9.20;89.80;;;;;;638735;223;26548;-60
2022/03/18 09:54:01;;;;;;;7.55;3.35;;;9.40;89.30;;;;;;638979;224;26587;-60
2022/03/18 09:56:29;;;;;;;10.80;3.70;;;9.60;88.80;;;;;;634146;224;26588;-60
2022/03/18 09:58:56;;;;;;;8.65;3.62;;;9.50;89.30;;;;;;627436;227;26543;-60
2022/03/18 10:01:24;;;;;;;10.38;4.03;;;9.30;89.30;;;;;;633746;225;26523;-61
2022/03/18 10:03:51;;;;;;;12.25;4.18;;;9.50;88.90;;;;;;636663;223;26760;-62
2022/03/18 10:06:19;;;;;;;9.25;3.78;;;9.40;88.90;;;;;;649265;221;26597;-61
2022/03/18 10:08:47;;;;;;;9.57;4.15;;;9.20;89.40;;;;;;641172;221;26770;-60
2022/03/18 10:11:16;;;;;;;7.87;4.30;;;9.30;89.30;;;;;;638452;225;27246;-60
2022/03/18 10:14:01;;;;;;;10.05;4.03;;;9.30;89.50;;;;;;647062;221;26539;-62
2022/03/18 10:16:45;;;;;;;8.02;3.90;;;9.40;89.20;;;;;;642903;221;26534;-60
2022/03/18 10:19:13;;;;;;;9.85;4.55;;;9.40;89.20;;;;;;639723;221;26869;-62
2022/03/18 10:21:53;;;;;;;11.30;5.05;;;9.50;89.70;;;;;;638620;221;26518;-62
2022/03/18 10:24:31;;;;;;;10.75;5.07;;;9.50;88.30;;;;;;637948;225;27173;-62
2022/03/18 10:27:11;;;;;;;8.45;4.40;;;9.50;88.90;;;;;;628018;225;26656;-62
2022/03/18 10:29:41;;;;;;;10.07;4.53;;;9.40;88.80;;;;;;614874;234;26567;-61
2022/03/18 10:32:09;;;;;;;8.98;4.65;;;9.50;88.80;;;;;;618076;230;26763;-60
2022/03/18 10:37:09;;;;;;;8.63;4.75;;;9.80;88.20;;;;;;649888;221;26571;-62
2022/03/18 10:39:39;;;;;;;7.82;4.28;;;9.90;87.10;;;;;;629253;225;26778;-61
2022/03/18 10:42:07;;;;;;;9.57;4.47;;;10.00;84.10;;;;;;636233;225;26586;-61
2022/03/18 10:44:44;;;;;;;9.98;4.53;;;10.00;84.00;;;;;;621182;228;27186;-61
2022/03/18 10:47:10;;;;;;;9.55;4.12;;;10.10;84.80;;;;;;635649;225;26741;-61
2022/03/18 10:49:37;;;;;;;9.18;4.25;;;10.10;83.50;;;;;;618370;231;26524;-61
2022/03/18 10:52:10;;;;;;;10.25;4.15;;;10.10;83.20;;;;;;633481;225;26754;-61
2022/03/18 10:54:38;;;;;;;9.35;4.43;;;10.20;83.60;;;;;;650132;221;26559;-61
2022/03/18 10:57:03;;;;;;;10.20;4.60;;;10.30;84.60;;;;;;635044;225;26743;-61
2022/03/18 10:59:32;;;;;;;9.38;4.07;;;10.30;82.90;;;;;;620736;232;26486;-62
2022/03/18 11:01:58;;;;;;;9.10;4.12;;;10.40;82.20;;;;;;635218;225;26753;-62
2022/03/18 11:04:26;;;;;;;7.43;3.90;;;10.40;81.00;;;;;;632751;225;26601;-62
2022/03/18 11:09:25;;;;;;;9.43;4.32;;;10.40;80.50;;;;;;642162;221;26556;-60
2022/03/18 11:11:53;;;;;;;9.55;4.00;;;10.70;80.70;;;;;;649281;221;26555;-61
2022/03/18 11:14:21;;;;;;;6.30;4.07;;;10.80;79.90;;;;;;645432;223;26550;-61
2022/03/18 11:16:48;;;;;;;7.93;3.50;;;10.80;79.90;;;;;;644403;221;26575;-60
2022/03/18 11:19:16;;;;;;;15.82;4.32;;;10.80;80.00;;;;;;619719;229;26565;-62
2022/03/18 11:21:43;;;;;;;11.57;4.37;;;10.60;77.00;;;;;;619822;232;26877;-62
2022/03/18 11:24:12;;;;;;;6.22;3.97;;;10.50;77.70;;;;;;623053;227;26539;-61
2022/03/18 11:26:40;;;;;;;6.37;3.80;;;10.50;77.70;;;;;;648256;221;26526;-62
2022/03/18 11:29:07;;;;;;;8.82;4.35;;;10.60;78.40;;;;;;647308;221;26573;-62
2022/03/18 11:31:33;;;;;;;7.15;3.80;;;10.80;77.40;;;;;;636224;225;26538;-62
2022/03/18 11:34:07;;;;;;;8.48;3.85;;;10.70;77.60;;;;;;644434;221;26790;-61
2022/03/18 11:36:33;;;;;;;8.45;3.75;;;10.80;79.70;;;;;;639088;223;26786;-62
2022/03/18 11:39:02;;;;;;;6.80;3.70;;;11.10;76.70;;;;;;637490;222;26545;-62
2022/03/18 11:41:41;;;;;;;13.95;4.55;;;11.00;76.60;;;;;;637981;225;26499;-62
2022/03/18 11:44:09;;;;;;;9.95;3.78;;;11.10;76.20;;;;;;640250;225;26514;-62
2022/03/18 11:46:37;;;;;;;7.18;3.80;;;11.10;76.20;;;;;;640306;225;26520;-62
2022/03/18 11:49:05;;;;;;;9.88;4.00;;;11.00;75.10;;;;;;638190;225;26496;-62
2022/03/18 11:51:35;;;;;;;9.30;3.85;;;11.20;74.30;;;;;;638178;225;26468;-62
2022/03/18 11:54:25;;;;;;;18.83;3.85;;;11.30;74.40;;;;;;638208;225;26492;-62
2022/03/18 11:56:47;;;;;;;12.35;3.95;;;11.30;74.20;;;;;;637539;225;26537;-61
2022/03/18 11:59:43;;;;;;;8.57;3.60;;;11.40;73.20;;;;;;639996;225;26496;-61
2022/03/18 12:02:09;;;;;;;5.65;3.25;;;11.30;72.70;;;;;;639854;225;26516;-61
2022/03/18 12:04:46;;;;;;;5.57;2.97;;;11.30;72.70;;;;;;637968;225;26524;-62
2022/03/18 12:07:25;;;;;;;8.13;3.17;;;11.40;72.20;;;;;;637888;225;26513;-62
2022/03/18 12:10:00;;;;;;;5.85;2.70;;;11.50;71.10;;;;;;638097;225;26508;-62
2022/03/18 12:12:43;;;;;;;6.57;3.03;;;11.60;70.60;;;;;;637842;225;26508;-63
2022/03/18 12:15:15;;;;;;;6.30;2.95;;;11.70;70.40;;;;;;641152;222;26540;-61
2022/03/18 12:17:41;;;;;;;6.68;2.85;;;11.70;70.10;;;;;;639307;225;26484;-62
2022/03/18 12:20:09;;;;;;;5.82;2.60;;;11.80;69.90;;;;;;641192;224;26543;-63
2022/03/18 12:22:37;;;;;;;5.18;2.85;;;11.70;67.50;;;;;;641057;224;26495;-62
2022/03/18 12:25:05;;;;;;;3.72;2.90;;;11.70;66.90;;;;;;638720;224;26537;-62
2022/03/18 12:27:36;;;;;;;3.65;2.60;;;11.70;66.70;;;;;;638769;225;26521;-62
2022/03/18 12:30:02;;;;;;;5.80;2.65;;;11.80;66.50;;;;;;638636;225;26534;-62
2022/03/18 12:32:30;;;;;;;6.37;2.75;;;12.10;65.50;;;;;;640500;224;26516;-62
2022/03/18 12:34:58;;;;;;;4.07;2.50;;;12.10;65.50;;;;;;638328;225;26575;-62
2022/03/18 12:37:31;;;;;;;5.72;2.58;;;12.10;65.40;;;;;;640310;224;26549;-61
2022/03/18 12:40:06;;;;;;;4.72;2.53;;;12.20;65.20;;;;;;638048;225;26593;-63
2022/03/18 12:42:49;;;;;;;7.87;3.00;;;12.30;65.20;;;;;;639724;221;26553;-62
2022/03/18 12:45:29;;;;;;;8.35;2.90;;;12.30;65.10;;;;;;638417;225;26573;-62
2022/03/18 12:47:54;;;;;;;7.62;3.35;;;12.20;63.60;;;;;;630321;227;26800;-62
2022/03/18 12:50:21;;;;;;;7.80;2.65;;;12.20;63.60;;;;;;629723;227;26502;-61
2022/03/18 12:52:48;;;;;;;6.55;3.03;;;12.20;63.40;;;;;;636751;225;27114;-63
2022/03/18 12:55:18;;;;;;;5.28;2.40;;;12.20;63.60;;;;;;632891;226;26566;-62
2022/03/18 12:57:43;;;;;;;6.07;2.62;;;12.30;63.30;;;;;;631021;228;27129;-61
2022/03/18 13:00:12;;;;;;;5.90;2.83;;;12.40;63.50;;;;;;631112;225;26512;-62
2022/03/18 13:02:41;;;;;;;7.00;2.72;;;12.30;63.30;;;;;;628810;225;26475;-61
2022/03/18 13:05:06;;;;;;;5.78;2.85;;;12.40;62.20;;;;;;645740;221;26756;-62
2022/03/18 13:07:34;;;;;;;6.68;2.60;;;12.50;61.60;;;;;;643903;221;26511;-62
2022/03/18 13:10:02;;;;;;;7.25;3.03;;;12.50;60.70;;;;;;646476;221;26500;-61
2022/03/18 13:12:31;;;;;;;7.93;2.75;;;12.50;60.70;;;;;;631479;227;26553;-61
2022/03/18 13:14:58;;;;;;;7.03;2.40;;;12.50;60.70;;;;;;616477;232;26520;-60
2022/03/18 13:17:31;;;;;;;7.75;2.60;;;12.70;58.20;;;;;;630136;227;26546;-62
2022/03/18 13:19:56;;;;;;;6.45;2.80;;;12.70;58.20;;;;;;614954;234;26568;-63
2022/03/18 13:22:24;;;;;;;5.18;2.70;;;12.70;57.90;;;;;;636037;225;26518;-63